Cabimas, Venezuela
Current Conditions -  °F | °C
As of 10:00 AM on Sunday 23 Nov 2014 (Local Time) from SKVP Reporting Station
Few Clouds Few Clouds  
Wind Chill: 84°   Ceiling: Unl
Heat Index: 90°   Visibility: 6mi
Dew Point: 72°   Wind: 9mph
Humidity: 66%   Direction: 50°NE
Pressure: 29.9"   Gusts: NA
Location:  10.43°N, 71.45°W
Report Text: SKVP 231400Z 05008KT 9999 FEW020 29/22 A2990
Loading
Personal Weather Stations






























Interactive Weather Map New forecast layout! Learn more

10-Day Weather Forecast

Advertisements
Track Severe Weather on mobile